Rurrenabaque Airport

Airport
ICAO code: 
SLRQ
IATA Code: 
RBQ
Summary
ICAO Region: 
CARSAM
Territory: 
Location: 
Rurrenabaque, El Beni
Serving: 
Rurrenabaque
Elevation: 
898 ft
Coordinates: 
Aerial View: 
14° 25' 39" S, 67° 29' 53.002" W
Metar
Observation
SLRQ 272000Z 00000KT 9999 SCT020 34/25 Q1005
Station
Rurrenabaque
Date/Time
2022-01-27 20:00:00
Wind direction
Wind speed
00 kts
Lowest cloud amount
scattered clouds
Temperature
34°C
Dew point
25°C
Humidity
59%
QNH
1005 hPa
Weather condition
n/a

Rurrenabaque Airport is an airport in Rurrenabaque, Bolivia.

Airport map: 
Aerial View: 

SKYbrary Partners:

Safety knowledge contributed by: